Weather at Licán Airport

Public forecast

Using degrees Celsius for public forecast. Weather courtesy of forecast.io.

Closest aviation weather report (METAR) to Licán Airport

Closest report is Cañal Bajo Carlos - Hott Siebert Airport, 29.7 nm (54.9 km) W.

2024/07/18 17:00 (retrieved 40 minutes ago)

SCJO 181700Z 17005KT 110V270 9999 VCSH BKN030 09/04 Q1027

Closest aviation forecast (TAF) to Licán Airport

Closest forecast is Cañal Bajo Carlos - Hott Siebert Airport, 29.7 nm (54.9 km) W.

2024/07/18 12:00 (retrieved 6 hours ago)

TAF SCJO 181110Z 1812/1824 21007KT 9999 -SHRA SCT050 BKN080 TN06/1813Z TX09/1819Z BECMG 1813/1815 NSW FEW030